Time;durP1;ratioP1;P1;durP2;ratioP2;P2;SDS_P1;SDS_P2;PMS_P1;PMS_P2;Temp;Humidity;BMP_temperature;BMP_pressure;BME280_temperature;BME280_humidity;BME280_pressure;Samples;Min_cycle;Max_cycle;Signal;HPM_P1;HPM_P2
2023/08/20 00:00:51;;;;;;;6.67;6.23;;;;;;;;;;5035063;28;20429;-71
2023/08/20 00:03:17;;;;;;;5.90;5.43;;;;;;;;;;5033795;28;20902;-69
2023/08/20 00:05:44;;;;;;;6.70;6.10;;;;;;;;;;5034060;28;20985;-72
2023/08/20 00:08:09;;;;;;;5.33;4.83;;;;;;;;;;5034406;28;20447;-69
2023/08/20 00:10:35;;;;;;;4.30;4.13;;;;;;;;;;5034336;28;20427;-72
2023/08/20 00:13:02;;;;;;;6.57;6.07;;;;;;;;;;5035055;28;20482;-70
2023/08/20 00:15:27;;;;;;;5.63;5.17;;;;;;;;;;5032486;28;20430;-71
2023/08/20 00:17:55;;;;;;;5.60;3.73;;;;;;;;;;5034807;28;20439;-72
2023/08/20 00:20:21;;;;;;;9.30;6.80;;;;;;;;;;5034363;28;20416;-72
2023/08/20 00:22:47;;;;;;;6.17;5.77;;;;;;;;;;5033816;28;20451;-72
2023/08/20 00:25:14;;;;;;;7.80;5.87;;;;;;;;;;5034914;28;20415;-72
2023/08/20 00:27:40;;;;;;;6.80;5.60;;;;;;;;;;5034570;28;20443;-72
2023/08/20 00:30:07;;;;;;;5.77;5.40;;;;;;;;;;5033346;28;20427;-72
2023/08/20 00:32:33;;;;;;;9.13;5.00;;;;;;;;;;5032861;28;20490;-72
2023/08/20 00:34:59;;;;;;;6.63;5.13;;;;;;;;;;5034868;28;20438;-72
2023/08/20 00:37:25;;;;;;;5.00;4.70;;;;;;;;;;5033949;28;20189;-70
2023/08/20 00:39:51;;;;;;;4.40;4.07;;;;;;;;;;5032144;28;20810;-71
2023/08/20 00:42:17;;;;;;;7.80;5.53;;;;;;;;;;5034028;28;20431;-72
2023/08/20 00:44:46;;;;;;;5.17;4.67;;;;;;;;;;5034384;28;20518;-73
2023/08/20 00:47:13;;;;;;;5.00;4.80;;;;;;;;;;5049037;28;20189;-72
2023/08/20 00:49:40;;;;;;;6.03;5.67;;;;;;;;;;5032850;28;20962;-72
2023/08/20 00:52:07;;;;;;;5.70;5.37;;;;;;;;;;5031772;28;20485;-73
2023/08/20 00:54:34;;;;;;;7.97;6.07;;;;;;;;;;5032527;28;20455;-72
2023/08/20 00:57:00;;;;;;;4.17;3.90;;;;;;;;;;5034414;28;20827;-73
2023/08/20 00:59:27;;;;;;;6.90;6.20;;;;;;;;;;5033241;28;20447;-72
2023/08/20 01:01:53;;;;;;;6.57;5.90;;;;;;;;;;5033548;28;20427;-72
2023/08/20 01:04:19;;;;;;;6.50;6.00;;;;;;;;;;5032058;28;20465;-73
2023/08/20 01:06:55;;;;;;;6.47;5.73;;;;;;;;;;5033500;28;20193;-69
2023/08/20 01:09:40;;;;;;;6.00;5.70;;;;;;;;;;5029298;28;20541;-73
2023/08/20 01:12:07;;;;;;;6.50;5.90;;;;;;;;;;5030864;28;20986;-73
2023/08/20 01:14:32;;;;;;;4.57;3.80;;;;;;;;;;5028633;28;20444;-72
2023/08/20 01:16:58;;;;;;;5.90;5.40;;;;;;;;;;5032608;28;20446;-73
2023/08/20 01:19:24;;;;;;;6.40;5.80;;;;;;;;;;5032884;28;20489;-73
2023/08/20 01:22:09;;;;;;;5.93;5.53;;;;;;;;;;5033116;28;20256;-72
2023/08/20 01:24:47;;;;;;;5.57;5.10;;;;;;;;;;5046432;28;21008;-72
2023/08/20 01:27:24;;;;;;;6.37;5.87;;;;;;;;;;5044607;28;20435;-71
2023/08/20 01:29:50;;;;;;;6.10;5.57;;;;;;;;;;5033495;28;20423;-72
2023/08/20 01:32:17;;;;;;;5.93;5.73;;;;;;;;;;5033614;28;20479;-72
2023/08/20 01:34:43;;;;;;;4.87;4.57;;;;;;;;;;5032472;28;20942;-72
2023/08/20 01:37:09;;;;;;;6.77;6.37;;;;;;;;;;5026552;28;20836;-72
2023/08/20 01:39:35;;;;;;;5.93;5.60;;;;;;;;;;5024286;28;20467;-72
2023/08/20 01:42:01;;;;;;;6.63;6.13;;;;;;;;;;5033488;28;20457;-72
2023/08/20 01:44:27;;;;;;;6.00;5.50;;;;;;;;;;5032381;28;20204;-73
2023/08/20 01:46:53;;;;;;;6.63;6.13;;;;;;;;;;5032506;28;20200;-73
2023/08/20 01:49:19;;;;;;;9.50;7.47;;;;;;;;;;5032232;28;20427;-73
2023/08/20 01:51:45;;;;;;;6.40;5.90;;;;;;;;;;5032359;28;20510;-72
2023/08/20 01:54:11;;;;;;;6.80;6.27;;;;;;;;;;5031333;28;20196;-72
2023/08/20 01:56:37;;;;;;;6.57;5.70;;;;;;;;;;5030723;28;20217;-72
2023/08/20 01:59:03;;;;;;;5.60;5.40;;;;;;;;;;5032117;28;20428;-71
2023/08/20 02:01:29;;;;;;;5.63;5.13;;;;;;;;;;5031782;28;20189;-72
2023/08/20 02:03:54;;;;;;;3.97;3.67;;;;;;;;;;5032611;28;20458;-71
2023/08/20 02:06:20;;;;;;;5.10;4.80;;;;;;;;;;5030988;28;20181;-73
2023/08/20 02:08:47;;;;;;;5.17;4.73;;;;;;;;;;5032440;28;20215;-72
2023/08/20 02:11:13;;;;;;;5.40;5.10;;;;;;;;;;5029902;28;20797;-72
2023/08/20 02:13:39;;;;;;;4.70;4.40;;;;;;;;;;5030547;28;20975;-72
2023/08/20 02:16:06;;;;;;;6.63;6.07;;;;;;;;;;5032215;28;20821;-74
2023/08/20 02:18:32;;;;;;;5.53;5.20;;;;;;;;;;5032741;28;20526;-72
2023/08/20 02:20:58;;;;;;;5.63;5.33;;;;;;;;;;5032577;28;20455;-71
2023/08/20 02:23:24;;;;;;;6.43;5.93;;;;;;;;;;5029357;28;20950;-69
2023/08/20 02:25:50;;;;;;;5.57;5.17;;;;;;;;;;5032727;28;20954;-73
2023/08/20 02:28:16;;;;;;;5.40;5.10;;;;;;;;;;5031202;28;20439;-72
2023/08/20 02:30:43;;;;;;;5.70;5.00;;;;;;;;;;5032566;28;20496;-72
2023/08/20 02:33:12;;;;;;;5.50;5.20;;;;;;;;;;5031466;28;20490;-72
2023/08/20 02:35:39;;;;;;;9.77;6.00;;;;;;;;;;5032001;28;20937;-71
2023/08/20 02:38:05;;;;;;;6.27;5.67;;;;;;;;;;5030193;28;20585;-72
2023/08/20 02:40:31;;;;;;;6.57;6.10;;;;;;;;;;5032136;28;20913;-70
2023/08/20 02:42:57;;;;;;;5.50;5.30;;;;;;;;;;5029646;28;20443;-71
2023/08/20 02:45:23;;;;;;;6.00;5.70;;;;;;;;;;5031399;28;20928;-71
2023/08/20 02:47:49;;;;;;;6.60;6.20;;;;;;;;;;5031196;28;20475;-72
2023/08/20 02:50:15;;;;;;;5.50;5.20;;;;;;;;;;5031693;28;20518;-70
2023/08/20 02:52:46;;;;;;;6.23;5.83;;;;;;;;;;5031681;28;20497;-72
2023/08/20 02:55:12;;;;;;;7.40;6.23;;;;;;;;;;5032331;28;20431;-72
2023/08/20 02:57:38;;;;;;;6.40;5.80;;;;;;;;;;5030284;28;20528;-72
2023/08/20 03:00:04;;;;;;;6.47;6.23;;;;;;;;;;5030764;28;20230;-72
2023/08/20 03:02:30;;;;;;;6.37;5.90;;;;;;;;;;5030502;28;20195;-70
2023/08/20 03:04:56;;;;;;;10.27;6.43;;;;;;;;;;5031558;28;20423;-69
2023/08/20 03:07:22;;;;;;;4.90;4.50;;;;;;;;;;5030590;28;20188;-68
2023/08/20 03:09:48;;;;;;;5.60;5.30;;;;;;;;;;5029536;28;20431;-71
2023/08/20 03:12:14;;;;;;;6.50;6.00;;;;;;;;;;5031089;28;20478;-72
2023/08/20 03:14:40;;;;;;;12.20;6.00;;;;;;;;;;5034426;28;20443;-73
2023/08/20 03:17:06;;;;;;;5.53;5.10;;;;;;;;;;5034025;28;20450;-72
2023/08/20 03:19:33;;;;;;;6.73;6.20;;;;;;;;;;5035571;28;20195;-70
2023/08/20 03:21:59;;;;;;;5.63;5.23;;;;;;;;;;5035530;28;20563;-73
2023/08/20 03:24:25;;;;;;;6.27;5.90;;;;;;;;;;5036183;28;20488;-70
2023/08/20 03:26:51;;;;;;;5.33;4.93;;;;;;;;;;5035446;28;20466;-71
2023/08/20 03:29:17;;;;;;;6.87;6.17;;;;;;;;;;5034819;28;20439;-72
2023/08/20 03:31:43;;;;;;;9.57;6.03;;;;;;;;;;5034977;28;20311;-73
2023/08/20 03:34:09;;;;;;;7.83;5.70;;;;;;;;;;5035916;28;20238;-72
2023/08/20 03:36:35;;;;;;;6.50;6.13;;;;;;;;;;5033460;28;20594;-72
2023/08/20 03:39:03;;;;;;;7.37;5.20;;;;;;;;;;5034031;28;20454;-72
2023/08/20 03:41:29;;;;;;;11.43;5.40;;;;;;;;;;5033956;28;20435;-80
2023/08/20 03:43:55;;;;;;;10.10;6.40;;;;;;;;;;5033994;28;20992;-82
2023/08/20 03:46:21;;;;;;;6.80;6.23;;;;;;;;;;5035379;28;20454;-79
2023/08/20 03:48:47;;;;;;;6.33;5.83;;;;;;;;;;5033993;28;20428;-83
2023/08/20 03:51:13;;;;;;;8.00;6.03;;;;;;;;;;5033307;28;20442;-81
2023/08/20 03:53:39;;;;;;;10.23;6.77;;;;;;;;;;5034650;28;20982;-82
2023/08/20 03:56:05;;;;;;;6.10;5.60;;;;;;;;;;5034861;28;20442;-81
2023/08/20 03:58:31;;;;;;;7.47;6.60;;;;;;;;;;5031790;28;20447;-82
2023/08/20 04:00:57;;;;;;;7.00;6.40;;;;;;;;;;5034491;28;20784;-82
2023/08/20 04:03:23;;;;;;;6.30;5.83;;;;;;;;;;5035420;28;20427;-82
2023/08/20 04:05:50;;;;;;;7.27;5.70;;;;;;;;;;5033581;28;20961;-83
2023/08/20 04:08:16;;;;;;;6.60;6.13;;;;;;;;;;5034228;28;20431;-82
2023/08/20 04:10:44;;;;;;;7.03;6.10;;;;;;;;;;5033269;28;20423;-80
2023/08/20 04:13:09;;;;;;;8.37;7.60;;;;;;;;;;5034659;28;20475;-79
2023/08/20 04:15:35;;;;;;;6.30;5.73;;;;;;;;;;5034647;28;20450;-80
2023/08/20 04:18:01;;;;;;;7.60;6.80;;;;;;;;;;5034979;28;20533;-83
2023/08/20 04:20:27;;;;;;;6.07;5.73;;;;;;;;;;5033499;28;20243;-80
2023/08/20 04:22:53;;;;;;;7.03;5.93;;;;;;;;;;5033395;28;20431;-81
2023/08/20 04:25:19;;;;;;;4.50;4.30;;;;;;;;;;5029789;28;20453;-77
2023/08/20 04:27:45;;;;;;;6.73;5.93;;;;;;;;;;5034766;28;20319;-76
2023/08/20 04:30:11;;;;;;;6.00;5.60;;;;;;;;;;5029437;28;20455;-83
2023/08/20 04:32:37;;;;;;;4.67;4.57;;;;;;;;;;5030820;28;20521;-74
2023/08/20 04:35:03;;;;;;;5.47;5.03;;;;;;;;;;5033319;28;20497;-77
2023/08/20 04:37:29;;;;;;;5.37;5.10;;;;;;;;;;5044767;28;20447;-79
2023/08/20 04:39:55;;;;;;;7.00;6.30;;;;;;;;;;5023875;28;20443;-71
2023/08/20 04:42:21;;;;;;;6.90;6.20;;;;;;;;;;5033127;28;20439;-76
2023/08/20 04:44:47;;;;;;;6.33;5.97;;;;;;;;;;5040053;28;20435;-68
2023/08/20 04:47:13;;;;;;;6.40;5.90;;;;;;;;;;5033280;28;20939;-77
2023/08/20 04:49:39;;;;;;;5.10;4.77;;;;;;;;;;5027581;28;20451;-75
2023/08/20 04:52:05;;;;;;;6.63;5.40;;;;;;;;;;5031801;28;20502;-76
2023/08/20 04:54:32;;;;;;;5.20;5.00;;;;;;;;;;5032756;28;20439;-80
2023/08/20 04:56:58;;;;;;;6.67;6.27;;;;;;;;;;5033485;28;20438;-77
2023/08/20 04:59:24;;;;;;;5.60;5.40;;;;;;;;;;5030073;28;20440;-81
2023/08/20 05:01:49;;;;;;;10.43;6.40;;;;;;;;;;5030553;28;20450;-75
2023/08/20 05:04:15;;;;;;;8.13;5.67;;;;;;;;;;5033377;28;20431;-73
2023/08/20 05:06:41;;;;;;;6.53;5.93;;;;;;;;;;5033414;28;20489;-70
2023/08/20 05:09:07;;;;;;;6.17;5.63;;;;;;;;;;5033264;28;20921;-72
2023/08/20 05:11:33;;;;;;;6.20;5.80;;;;;;;;;;5033198;28;20674;-71
2023/08/20 05:13:59;;;;;;;10.30;6.00;;;;;;;;;;5044279;28;20262;-71
2023/08/20 05:16:25;;;;;;;6.10;5.73;;;;;;;;;;5033769;28;20986;-68
2023/08/20 05:18:51;;;;;;;5.70;5.40;;;;;;;;;;5033786;28;20930;-71
2023/08/20 05:21:17;;;;;;;6.07;5.63;;;;;;;;;;5032050;28;20438;-73
2023/08/20 05:23:43;;;;;;;5.83;5.53;;;;;;;;;;5032124;28;20435;-75
2023/08/20 05:26:09;;;;;;;6.80;6.27;;;;;;;;;;5032281;28;20188;-76
2023/08/20 05:28:35;;;;;;;5.57;5.27;;;;;;;;;;5031982;28;20184;-78
2023/08/20 05:31:01;;;;;;;6.40;6.10;;;;;;;;;;5032520;28;20184;-77
2023/08/20 05:33:27;;;;;;;7.20;6.50;;;;;;;;;;5033085;28;20482;-78
2023/08/20 05:35:53;;;;;;;6.83;5.60;;;;;;;;;;5030825;28;20455;-75
2023/08/20 05:38:19;;;;;;;10.60;6.63;;;;;;;;;;5024586;28;20490;-80
2023/08/20 05:40:45;;;;;;;9.93;6.13;;;;;;;;;;5029974;28;20439;-77
2023/08/20 05:43:11;;;;;;;6.30;5.87;;;;;;;;;;5033144;28;20911;-78
2023/08/20 05:45:36;;;;;;;6.73;5.90;;;;;;;;;;5032686;28;20443;-77
2023/08/20 05:48:03;;;;;;;6.53;6.07;;;;;;;;;;5033921;28;20917;-79
2023/08/20 05:50:29;;;;;;;8.83;6.30;;;;;;;;;;5028291;28;20435;-77
2023/08/20 05:52:54;;;;;;;6.17;5.77;;;;;;;;;;5033465;28;20479;-76
2023/08/20 05:55:20;;;;;;;6.37;6.07;;;;;;;;;;5031913;28;20443;-72
2023/08/20 05:57:46;;;;;;;9.60;6.30;;;;;;;;;;5033717;28;20187;-74
2023/08/20 06:00:12;;;;;;;6.33;5.83;;;;;;;;;;5032088;28;20254;-71
2023/08/20 06:02:38;;;;;;;6.43;6.03;;;;;;;;;;5032649;28;20419;-74
2023/08/20 06:05:04;;;;;;;10.30;5.83;;;;;;;;;;5031914;28;20832;-71
2023/08/20 06:07:31;;;;;;;7.27;5.80;;;;;;;;;;5032039;28;20193;-80
2023/08/20 06:09:57;;;;;;;6.57;5.60;;;;;;;;;;5031996;28;20454;-76
2023/08/20 06:12:23;;;;;;;5.50;5.00;;;;;;;;;;5031870;28;20478;-75
2023/08/20 06:14:49;;;;;;;13.93;6.40;;;;;;;;;;5030720;28;20451;-69
2023/08/20 06:17:15;;;;;;;11.57;5.17;;;;;;;;;;5032017;28;20797;-74
2023/08/20 06:19:41;;;;;;;7.13;6.47;;;;;;;;;;5026124;28;20481;-73
2023/08/20 06:22:07;;;;;;;9.73;5.80;;;;;;;;;;5047859;28;20463;-77
2023/08/20 06:24:33;;;;;;;7.80;6.30;;;;;;;;;;5032181;28;20489;-70
2023/08/20 06:26:59;;;;;;;7.20;6.37;;;;;;;;;;5031096;28;20467;-74
2023/08/20 06:29:25;;;;;;;7.30;6.70;;;;;;;;;;5032187;28;20486;-69
2023/08/20 06:31:51;;;;;;;6.60;6.30;;;;;;;;;;5032748;28;20438;-79
2023/08/20 06:34:17;;;;;;;7.80;7.10;;;;;;;;;;5032866;28;20907;-78
2023/08/20 06:36:43;;;;;;;7.33;6.80;;;;;;;;;;5031579;28;20465;-72
2023/08/20 06:39:10;;;;;;;7.67;7.27;;;;;;;;;;5032245;28;20796;-68
2023/08/20 06:41:36;;;;;;;9.93;7.20;;;;;;;;;;5032161;28;20478;-68
2023/08/20 06:44:02;;;;;;;7.80;7.20;;;;;;;;;;5032731;28;20864;-68
2023/08/20 06:46:28;;;;;;;7.87;7.17;;;;;;;;;;5032081;28;20431;-68
2023/08/20 06:48:54;;;;;;;18.07;8.13;;;;;;;;;;5031304;28;20485;-68
2023/08/20 06:51:21;;;;;;;6.43;6.10;;;;;;;;;;5028637;28;20482;-68
2023/08/20 06:53:47;;;;;;;7.30;6.30;;;;;;;;;;5029585;28;20232;-68
2023/08/20 06:56:13;;;;;;;9.53;7.00;;;;;;;;;;5031109;28;20446;-68
2023/08/20 06:58:40;;;;;;;12.47;8.00;;;;;;;;;;5031282;28;20439;-68
2023/08/20 07:01:09;;;;;;;8.57;7.87;;;;;;;;;;5030738;28;20435;-68
2023/08/20 07:03:38;;;;;;;8.13;7.63;;;;;;;;;;5028052;28;20446;-68
2023/08/20 07:06:04;;;;;;;8.60;7.87;;;;;;;;;;5027081;28;20461;-68
2023/08/20 07:08:30;;;;;;;9.07;8.57;;;;;;;;;;5029670;28;20443;-68
2023/08/20 07:10:56;;;;;;;9.77;8.20;;;;;;;;;;5026135;28;20427;-68
2023/08/20 07:13:22;;;;;;;12.73;7.40;;;;;;;;;;5028287;28;20572;-68
2023/08/20 07:15:48;;;;;;;9.30;7.27;;;;;;;;;;5020666;28;20427;-68
2023/08/20 07:18:14;;;;;;;10.10;9.13;;;;;;;;;;5030142;28;20525;-68
2023/08/20 07:20:42;;;;;;;8.90;8.20;;;;;;;;;;5029577;28;20434;-68
2023/08/20 07:23:09;;;;;;;8.73;7.53;;;;;;;;;;5030455;28;20823;-68
2023/08/20 07:25:37;;;;;;;7.97;7.30;;;;;;;;;;5031580;28;20450;-68
2023/08/20 07:28:03;;;;;;;8.70;7.90;;;;;;;;;;5031018;28;20478;-68
2023/08/20 07:30:29;;;;;;;9.73;8.50;;;;;;;;;;5035281;28;20438;-68
2023/08/20 07:32:55;;;;;;;8.00;7.40;;;;;;;;;;5029322;28;20537;-68
2023/08/20 07:35:21;;;;;;;8.50;7.70;;;;;;;;;;5032461;28;20442;-68
2023/08/20 07:37:47;;;;;;;13.40;9.17;;;;;;;;;;5030445;28;20196;-68
2023/08/20 07:40:13;;;;;;;9.53;8.57;;;;;;;;;;5023933;28;20455;-68
2023/08/20 07:42:42;;;;;;;9.03;8.17;;;;;;;;;;5030410;28;20458;-68
2023/08/20 07:45:08;;;;;;;8.77;8.17;;;;;;;;;;5026741;28;20435;-68
2023/08/20 07:47:36;;;;;;;10.03;8.73;;;;;;;;;;5046774;28;20776;-68
2023/08/20 07:50:02;;;;;;;10.00;9.10;;;;;;;;;;5028784;28;20411;-68
2023/08/20 07:52:28;;;;;;;8.73;7.83;;;;;;;;;;5027466;28;20487;-68
2023/08/20 07:54:54;;;;;;;4.70;4.33;;;;;;;;;;5030011;28;20447;-68
2023/08/20 07:57:20;;;;;;;8.40;7.90;;;;;;;;;;5024166;28;20442;-68
2023/08/20 07:59:46;;;;;;;7.87;7.00;;;;;;;;;;5030596;28;20184;-68
2023/08/20 08:02:12;;;;;;;8.87;8.07;;;;;;;;;;5028722;28;20505;-68
2023/08/20 08:04:39;;;;;;;9.50;8.73;;;;;;;;;;5033333;28;20192;-68
2023/08/20 08:07:05;;;;;;;17.47;9.37;;;;;;;;;;5034177;28;20218;-68
2023/08/20 08:09:31;;;;;;;9.47;8.67;;;;;;;;;;5033096;28;20866;-68
2023/08/20 08:11:58;;;;;;;9.00;8.53;;;;;;;;;;5033760;28;20434;-68
2023/08/20 08:14:24;;;;;;;9.13;8.23;;;;;;;;;;5034212;28;20927;-68
2023/08/20 08:16:50;;;;;;;17.77;9.07;;;;;;;;;;5031638;28;20931;-68
2023/08/20 08:19:16;;;;;;;4.97;4.80;;;;;;;;;;5037154;28;20455;-68
2023/08/20 08:21:43;;;;;;;8.73;8.03;;;;;;;;;;5032515;28;20505;-68
2023/08/20 08:24:09;;;;;;;10.73;8.40;;;;;;;;;;5033263;28;20420;-68
2023/08/20 08:26:36;;;;;;;6.90;6.30;;;;;;;;;;5032118;28;20439;-68
2023/08/20 08:29:03;;;;;;;8.77;8.00;;;;;;;;;;5030959;28;20438;-68
2023/08/20 08:31:29;;;;;;;7.70;7.03;;;;;;;;;;5033310;28;20961;-68
2023/08/20 08:33:55;;;;;;;6.87;6.57;;;;;;;;;;5033061;28;20565;-68
2023/08/20 08:36:21;;;;;;;11.90;6.67;;;;;;;;;;5033121;28;20477;-68
2023/08/20 08:38:47;;;;;;;7.90;7.50;;;;;;;;;;5032851;28;20431;-67
2023/08/20 08:41:13;;;;;;;9.03;7.00;;;;;;;;;;5033237;28;20438;-69
2023/08/20 08:43:40;;;;;;;8.40;7.80;;;;;;;;;;5033253;28;20916;-68
2023/08/20 08:46:15;;;;;;;7.50;6.83;;;;;;;;;;5033565;28;20430;-69
2023/08/20 08:48:42;;;;;;;5.97;5.73;;;;;;;;;;5032895;28;20431;-69
2023/08/20 08:51:09;;;;;;;6.63;6.00;;;;;;;;;;5028925;28;20427;-68
2023/08/20 08:53:35;;;;;;;13.33;6.70;;;;;;;;;;5032767;28;20483;-68
2023/08/20 08:56:02;;;;;;;7.83;7.03;;;;;;;;;;5032994;28;20420;-68
2023/08/20 08:58:28;;;;;;;6.90;6.30;;;;;;;;;;5032265;28;20927;-68
2023/08/20 09:00:54;;;;;;;6.80;6.30;;;;;;;;;;5033001;28;20506;-68
2023/08/20 09:03:21;;;;;;;7.30;6.40;;;;;;;;;;5032905;28;20989;-68
2023/08/20 09:05:48;;;;;;;6.47;6.17;;;;;;;;;;5032499;28;20416;-68
2023/08/20 09:08:26;;;;;;;7.20;6.70;;;;;;;;;;5030100;28;20878;-68
2023/08/20 09:10:53;;;;;;;7.60;6.73;;;;;;;;;;5033077;28;20426;-68
2023/08/20 09:13:25;;;;;;;11.37;7.63;;;;;;;;;;5032861;28;20498;-69
2023/08/20 09:15:54;;;;;;;7.17;6.87;;;;;;;;;;5027986;28;20463;-68
2023/08/20 09:18:21;;;;;;;6.90;6.60;;;;;;;;;;5026937;28;20423;-68
2023/08/20 09:20:50;;;;;;;7.47;6.57;;;;;;;;;;5030962;28;20461;-68
2023/08/20 09:23:16;;;;;;;8.57;7.47;;;;;;;;;;5033042;28;20751;-70
2023/08/20 09:25:43;;;;;;;7.07;6.53;;;;;;;;;;5033384;28;20439;-68
2023/08/20 09:28:09;;;;;;;7.43;6.60;;;;;;;;;;5034047;28;20423;-68
2023/08/20 09:30:35;;;;;;;6.03;5.63;;;;;;;;;;5033972;28;20506;-71
2023/08/20 09:33:13;;;;;;;7.57;6.80;;;;;;;;;;5033911;28;20557;-71
2023/08/20 09:35:39;;;;;;;5.53;5.33;;;;;;;;;;5028690;28;20441;-69
2023/08/20 09:38:05;;;;;;;6.70;6.30;;;;;;;;;;5031930;28;20518;-69
2023/08/20 09:40:31;;;;;;;6.63;6.17;;;;;;;;;;5032964;28;20791;-68
2023/08/20 09:42:58;;;;;;;5.27;4.60;;;;;;;;;;5032257;28;20427;-69
2023/08/20 09:45:28;;;;;;;6.20;4.80;;;;;;;;;;5033114;28;20439;-69
2023/08/20 09:47:58;;;;;;;5.37;5.07;;;;;;;;;;5033066;28;20415;-68
2023/08/20 09:50:25;;;;;;;7.03;6.40;;;;;;;;;;5032501;28;20404;-68
2023/08/20 09:52:57;;;;;;;6.73;6.43;;;;;;;;;;5032779;28;20582;-71
2023/08/20 09:55:24;;;;;;;6.93;6.43;;;;;;;;;;5031644;28;20491;-71
2023/08/20 09:57:50;;;;;;;15.00;5.30;;;;;;;;;;5013767;28;20575;-69
2023/08/20 10:00:16;;;;;;;7.07;6.57;;;;;;;;;;5012832;28;20416;-69
2023/08/20 10:02:42;;;;;;;8.80;7.30;;;;;;;;;;5027735;28;20431;-69
2023/08/20 10:05:09;;;;;;;6.83;6.30;;;;;;;;;;5038115;28;20982;-72
2023/08/20 10:07:36;;;;;;;13.53;6.60;;;;;;;;;;5036372;28;20435;-69
2023/08/20 10:10:04;;;;;;;9.23;6.80;;;;;;;;;;5031183;28;20419;-69
2023/08/20 10:12:30;;;;;;;11.13;6.80;;;;;;;;;;5033204;28;21026;-71
2023/08/20 10:14:57;;;;;;;14.23;7.67;;;;;;;;;;5030095;28;20461;-71
2023/08/20 10:17:24;;;;;;;7.60;6.50;;;;;;;;;;5030914;28;20422;-69
2023/08/20 10:19:52;;;;;;;6.33;5.90;;;;;;;;;;5030613;28;20438;-69
2023/08/20 10:22:18;;;;;;;6.47;6.10;;;;;;;;;;5031230;28;20422;-68
2023/08/20 10:24:48;;;;;;;5.50;5.20;;;;;;;;;;5031247;28;20439;-67
2023/08/20 10:27:24;;;;;;;6.70;6.30;;;;;;;;;;5032470;28;20426;-69
2023/08/20 10:29:50;;;;;;;9.70;7.63;;;;;;;;;;5030858;28;20427;-68
2023/08/20 10:32:16;;;;;;;7.03;6.63;;;;;;;;;;5030604;28;20477;-69
2023/08/20 10:34:43;;;;;;;13.53;6.67;;;;;;;;;;5028627;28;20458;-68
2023/08/20 10:37:15;;;;;;;8.13;7.63;;;;;;;;;;5031613;28;20450;-68
2023/08/20 10:39:42;;;;;;;6.70;6.20;;;;;;;;;;5030963;28;20434;-70
2023/08/20 10:42:22;;;;;;;6.60;6.17;;;;;;;;;;5030931;28;20505;-68
2023/08/20 10:44:57;;;;;;;7.20;6.80;;;;;;;;;;5027371;28;20427;-68
2023/08/20 10:47:25;;;;;;;13.10;6.40;;;;;;;;;;5030638;28;20911;-68
2023/08/20 10:49:54;;;;;;;7.03;6.60;;;;;;;;;;5029003;28;20434;-70
2023/08/20 10:52:23;;;;;;;6.27;5.90;;;;;;;;;;5029301;28;20885;-69
2023/08/20 10:54:51;;;;;;;8.23;7.00;;;;;;;;;;5032512;28;20493;-68
2023/08/20 10:57:17;;;;;;;7.97;7.03;;;;;;;;;;5031030;28;20426;-72
2023/08/20 10:59:43;;;;;;;8.63;7.10;;;;;;;;;;5031214;28;20461;-69
2023/08/20 11:02:15;;;;;;;7.63;7.13;;;;;;;;;;5027151;28;20986;-70
2023/08/20 11:04:41;;;;;;;7.73;7.27;;;;;;;;;;5029500;28;20242;-69
2023/08/20 11:07:09;;;;;;;6.83;6.37;;;;;;;;;;5027602;28;20526;-69
2023/08/20 11:09:35;;;;;;;6.67;6.07;;;;;;;;;;5030072;28;20477;-69
2023/08/20 11:12:01;;;;;;;17.10;7.03;;;;;;;;;;5029731;28;20526;-69
2023/08/20 11:14:27;;;;;;;6.20;5.70;;;;;;;;;;5029746;28;20420;-69
2023/08/20 11:16:53;;;;;;;6.77;6.07;;;;;;;;;;5037931;28;20477;-69
2023/08/20 11:19:20;;;;;;;7.50;6.90;;;;;;;;;;5043603;28;20426;-69
2023/08/20 11:21:46;;;;;;;9.17;6.00;;;;;;;;;;5030333;28;20447;-69
2023/08/20 11:24:13;;;;;;;7.50;6.93;;;;;;;;;;5027754;28;20920;-75
2023/08/20 11:26:39;;;;;;;5.60;5.27;;;;;;;;;;5030348;28;20420;-69
2023/08/20 11:29:06;;;;;;;12.47;4.83;;;;;;;;;;5026413;28;20467;-69
2023/08/20 11:31:32;;;;;;;5.83;5.23;;;;;;;;;;5026300;28;20428;-68
2023/08/20 11:33:58;;;;;;;5.83;5.53;;;;;;;;;;5029018;28;20967;-69
2023/08/20 11:36:24;;;;;;;6.20;5.20;;;;;;;;;;5032696;28;20443;-72
2023/08/20 11:38:52;;;;;;;9.10;5.73;;;;;;;;;;5032897;28;20451;-69
2023/08/20 11:41:18;;;;;;;12.60;5.77;;;;;;;;;;5031926;28;20475;-69
2023/08/20 11:43:44;;;;;;;5.30;4.93;;;;;;;;;;5026791;28;20901;-69
2023/08/20 11:46:17;;;;;;;5.90;5.40;;;;;;;;;;5023631;28;20437;-69
2023/08/20 11:49:03;;;;;;;6.53;6.13;;;;;;;;;;5040423;28;20714;-69
2023/08/20 11:51:29;;;;;;;6.63;6.03;;;;;;;;;;5044818;28;20433;-69
2023/08/20 11:53:55;;;;;;;6.17;5.50;;;;;;;;;;5046311;28;20565;-68
2023/08/20 11:56:21;;;;;;;5.67;5.40;;;;;;;;;;5045608;28;20872;-69
2023/08/20 11:58:51;;;;;;;5.00;4.90;;;;;;;;;;5047598;28;20455;-69
2023/08/20 12:01:18;;;;;;;5.50;5.10;;;;;;;;;;5046538;28;20426;-72
2023/08/20 12:03:44;;;;;;;5.67;4.97;;;;;;;;;;5047411;28;20495;-69
2023/08/20 12:06:20;;;;;;;6.77;5.20;;;;;;;;;;5047466;28;20410;-69
2023/08/20 12:08:46;;;;;;;6.50;5.63;;;;;;;;;;5047921;28;20499;-69
2023/08/20 12:11:12;;;;;;;6.47;5.40;;;;;;;;;;5050826;28;21088;-69
2023/08/20 12:13:38;;;;;;;7.93;5.40;;;;;;;;;;5050853;28;21021;-69
2023/08/20 12:16:05;;;;;;;4.97;4.57;;;;;;;;;;5047338;28;20423;-69
2023/08/20 12:18:31;;;;;;;11.03;5.17;;;;;;;;;;5050459;28;20517;-69
2023/08/20 12:20:57;;;;;;;5.13;4.80;;;;;;;;;;5051224;28;20828;-69
2023/08/20 12:23:23;;;;;;;6.80;4.53;;;;;;;;;;5050138;28;20440;-69
2023/08/20 12:25:52;;;;;;;5.50;5.10;;;;;;;;;;5051476;28;20414;-69
2023/08/20 12:28:18;;;;;;;5.47;5.27;;;;;;;;;;5048343;28;20438;-69
2023/08/20 12:30:46;;;;;;;5.07;4.70;;;;;;;;;;5051620;28;20514;-70
2023/08/20 12:33:12;;;;;;;4.50;4.40;;;;;;;;;;5047358;28;20504;-70
2023/08/20 12:35:38;;;;;;;6.00;5.07;;;;;;;;;;5050093;28;20418;-69
2023/08/20 12:38:04;;;;;;;5.30;4.90;;;;;;;;;;5051200;28;20437;-71
2023/08/20 12:40:30;;;;;;;6.00;5.40;;;;;;;;;;5051083;28;20438;-69
2023/08/20 12:42:56;;;;;;;7.47;5.40;;;;;;;;;;5048476;28;20572;-68
2023/08/20 12:45:22;;;;;;;8.30;6.10;;;;;;;;;;5049573;28;20521;-69
2023/08/20 12:47:49;;;;;;;10.60;4.20;;;;;;;;;;5048946;28;20176;-68
2023/08/20 12:50:15;;;;;;;12.40;5.00;;;;;;;;;;5049397;28;20896;-69
2023/08/20 12:52:42;;;;;;;9.93;5.20;;;;;;;;;;5048853;28;20509;-69
2023/08/20 12:55:09;;;;;;;6.00;5.50;;;;;;;;;;5049836;28;20835;-68
2023/08/20 12:57:35;;;;;;;5.83;5.43;;;;;;;;;;5048160;28;20453;-69
2023/08/20 13:00:06;;;;;;;6.40;5.17;;;;;;;;;;5050035;28;20473;-69
2023/08/20 13:02:32;;;;;;;10.63;5.77;;;;;;;;;;5049978;28;20521;-69
2023/08/20 13:04:59;;;;;;;4.90;4.60;;;;;;;;;;5051029;28;20902;-68
2023/08/20 13:07:25;;;;;;;5.13;4.67;;;;;;;;;;5049957;28;20419;-69
2023/08/20 13:09:51;;;;;;;4.73;4.30;;;;;;;;;;5048645;28;20465;-69
2023/08/20 13:12:19;;;;;;;5.83;5.20;;;;;;;;;;5049956;28;20473;-69
2023/08/20 13:14:45;;;;;;;5.30;4.87;;;;;;;;;;5051589;28;20422;-69
2023/08/20 13:17:11;;;;;;;5.87;5.47;;;;;;;;;;5050947;28;20790;-69
2023/08/20 13:19:37;;;;;;;7.47;5.17;;;;;;;;;;5050810;28;20472;-69
2023/08/20 13:22:06;;;;;;;6.47;5.37;;;;;;;;;;5048679;28;20462;-69
2023/08/20 13:24:32;;;;;;;6.73;5.83;;;;;;;;;;5049119;28;20502;-69
2023/08/20 13:26:57;;;;;;;6.63;4.90;;;;;;;;;;5050789;28;20453;-70
2023/08/20 13:29:23;;;;;;;5.43;4.70;;;;;;;;;;5049608;28;20474;-68
2023/08/20 13:31:49;;;;;;;7.23;4.73;;;;;;;;;;5049132;28;20464;-70
2023/08/20 13:34:15;;;;;;;4.57;4.20;;;;;;;;;;5049046;28;20486;-69
2023/08/20 13:36:42;;;;;;;4.90;4.63;;;;;;;;;;5044466;28;20426;-69
2023/08/20 13:39:08;;;;;;;5.97;5.47;;;;;;;;;;5046624;28;20438;-69
2023/08/20 13:41:34;;;;;;;6.80;4.47;;;;;;;;;;5043545;28;20449;-68
2023/08/20 13:44:00;;;;;;;4.50;4.30;;;;;;;;;;5049267;28;20430;-69
2023/08/20 13:46:25;;;;;;;7.00;4.63;;;;;;;;;;5047186;28;20431;-68
2023/08/20 13:48:51;;;;;;;4.80;4.10;;;;;;;;;;5049849;28;20536;-69
2023/08/20 13:51:17;;;;;;;5.60;4.03;;;;;;;;;;5047730;28;20431;-69
2023/08/20 13:53:44;;;;;;;6.07;4.70;;;;;;;;;;5049141;28;20216;-68
2023/08/20 13:56:10;;;;;;;8.37;4.57;;;;;;;;;;5050002;28;20415;-69
2023/08/20 13:58:36;;;;;;;5.10;4.80;;;;;;;;;;5048106;28;20496;-69
2023/08/20 14:01:02;;;;;;;4.73;4.30;;;;;;;;;;5050198;28;20418;-69
2023/08/20 14:03:28;;;;;;;5.57;5.10;;;;;;;;;;5048549;28;20442;-69
2023/08/20 14:05:54;;;;;;;4.93;4.67;;;;;;;;;;5047602;28;20529;-70
2023/08/20 14:08:20;;;;;;;4.87;4.33;;;;;;;;;;5048240;28;20524;-70
2023/08/20 14:10:46;;;;;;;4.97;4.17;;;;;;;;;;5050195;28;20480;-68
2023/08/20 14:13:12;;;;;;;4.63;4.43;;;;;;;;;;5050212;28;20477;-68
2023/08/20 14:15:38;;;;;;;5.83;4.83;;;;;;;;;;5045776;28;20437;-68
2023/08/20 14:18:04;;;;;;;5.83;4.57;;;;;;;;;;5046861;28;20443;-71
2023/08/20 14:20:30;;;;;;;5.33;4.83;;;;;;;;;;5049105;28;20507;-69
2023/08/20 14:22:56;;;;;;;4.53;4.20;;;;;;;;;;5047696;28;20644;-68
2023/08/20 14:25:22;;;;;;;8.93;4.70;;;;;;;;;;5049121;28;20183;-68
2023/08/20 14:27:48;;;;;;;5.70;4.90;;;;;;;;;;5049680;28;20422;-69
2023/08/20 14:30:13;;;;;;;5.40;5.03;;;;;;;;;;5045963;28;20454;-68
2023/08/20 14:32:39;;;;;;;3.43;3.13;;;;;;;;;;5045411;28;20478;-69
2023/08/20 14:35:06;;;;;;;9.30;3.90;;;;;;;;;;5048248;28;20199;-68
2023/08/20 14:37:33;;;;;;;3.70;3.40;;;;;;;;;;5048531;28;20187;-69